Time;durP1;ratioP1;P1;durP2;ratioP2;P2;SDS_P1;SDS_P2;PMS_P1;PMS_P2;Temp;Humidity;BMP_temperature;BMP_pressure;BME280_temperature;BME280_humidity;BME280_pressure;Samples;Min_cycle;Max_cycle;Signal;HPM_P1;HPM_P2
2022/10/01 00:02:38;;;;;;;44.05;24.65;;;;;;;9.11;99.85;99063.81;8409405;28;20138;-80
2022/10/01 00:06:39;;;;;;;41.65;23.35;;;;;;;9.09;100.00;99076.78;8405809;28;20053;-79
2022/10/01 00:10:41;;;;;;;42.92;23.85;;;;;;;9.09;100.00;99071.41;8409203;28;20055;-80
2022/10/01 00:14:43;;;;;;;44.25;24.35;;;;;;;9.06;100.00;99077.38;8413205;28;20856;-80
2022/10/01 00:18:45;;;;;;;45.88;25.83;;;;;;;9.06;100.00;99080.88;8397873;28;20052;-80
2022/10/01 00:22:46;;;;;;;45.03;24.40;;;;;;;9.05;100.00;99081.16;8398085;28;20052;-83
2022/10/01 00:26:47;;;;;;;43.80;25.15;;;;;;;9.00;100.00;99078.56;8397299;28;20146;-80
2022/10/01 00:30:48;;;;;;;41.88;24.52;;;;;;;8.97;100.00;99087.25;8397462;28;20071;-80
2022/10/01 00:34:49;;;;;;;44.22;26.00;;;;;;;8.92;100.00;99084.66;8409252;28;20059;-81
2022/10/01 00:38:50;;;;;;;47.28;24.70;;;;;;;8.87;100.00;99086.34;8410877;28;20048;-81
2022/10/01 00:42:50;;;;;;;59.10;25.65;;;;;;;8.82;100.00;99086.44;8419024;28;20135;-80
2022/10/01 00:46:52;;;;;;;43.80;25.80;;;;;;;8.77;100.00;99081.16;8394295;28;20090;-81
2022/10/01 00:50:56;;;;;;;51.05;27.25;;;;;;;8.73;100.00;99090.91;8420946;28;20108;-80
2022/10/01 00:55:04;;;;;;;52.13;26.25;;;;;;;8.69;100.00;99079.13;8404788;28;20087;-80
2022/10/01 00:59:05;;;;;;;49.25;27.45;;;;;;;8.65;100.00;99078.13;8413636;28;20052;-81
2022/10/01 01:03:08;;;;;;;44.75;27.08;;;;;;;8.63;100.00;99074.94;8397367;28;20055;-79
2022/10/01 01:07:09;;;;;;;48.05;26.92;;;;;;;8.59;100.00;99068.56;8404079;28;20037;-79
2022/10/01 01:11:36;;;;;;;51.78;28.48;;;;;;;8.55;100.00;99062.16;8410400;28;20041;-80
2022/10/01 01:15:47;;;;;;;52.75;27.10;;;;;;;8.55;100.00;99062.16;8418870;28;20047;-80
2022/10/01 01:20:15;;;;;;;57.53;27.90;;;;;;;8.54;100.00;99065.94;8424080;28;20565;-79
2022/10/01 01:24:25;;;;;;;47.80;27.67;;;;;;;8.53;100.00;99064.34;8401109;28;20036;-79
2022/10/01 01:28:31;;;;;;;52.50;27.05;;;;;;;8.54;100.00;99060.56;8407132;28;20044;-79
2022/10/01 01:33:02;;;;;;;50.03;28.35;;;;;;;8.55;100.00;99056.78;8398223;28;20076;-79
2022/10/01 01:37:11;;;;;;;53.08;29.52;;;;;;;8.58;100.00;99044.59;8311018;28;20054;-79
2022/10/01 01:41:12;;;;;;;;;;;;;;;8.60;100.00;99053.19;8307055;28;20065;-80
2022/10/01 01:45:18;;;;;;;52.95;28.95;;;;;;;8.61;100.00;99054.81;8289266;28;19922;-80
2022/10/01 01:49:19;;;;;;;49.50;27.52;;;;;;;8.56;100.00;99053.00;8231540;28;20050;-79
2022/10/01 01:53:20;;;;;;;50.40;29.38;;;;;;;8.57;100.00;99049.19;8282209;28;20062;-79
2022/10/01 01:57:21;;;;;;;53.83;29.70;;;;;;;8.57;100.00;99045.69;8307828;28;20144;-81
2022/10/01 02:01:39;;;;;;;54.63;30.10;;;;;;;8.53;100.00;99045.50;8300231;28;20132;-79
2022/10/01 02:05:57;;;;;;;55.72;31.05;;;;;;;8.50;100.00;99038.03;8297585;28;20053;-78
2022/10/01 02:10:04;;;;;;;54.38;31.38;;;;;;;8.48;100.00;99032.13;8292197;28;20045;-79
2022/10/01 02:14:38;;;;;;;53.65;30.00;;;;;;;8.45;100.00;99035.44;8383058;28;20040;-82
2022/10/01 02:18:42;;;;;;;63.65;31.88;;;;;;;8.47;100.00;99027.84;8307607;28;20098;-80
2022/10/01 02:22:51;;;;;;;76.57;33.30;;;;;;;8.47;100.00;99025.16;8298335;28;20110;-80
2022/10/01 02:26:54;;;;;;;76.07;32.72;;;;;;;8.49;100.00;99020.28;8293369;28;20049;-79
2022/10/01 02:30:56;;;;;;;137.85;34.17;;;;;;;8.53;100.00;99015.91;8266525;28;20056;-80
2022/10/01 02:34:58;;;;;;;125.93;33.05;;;;;;;8.56;100.00;99009.94;8278602;28;20054;-79
2022/10/01 02:39:00;;;;;;;217.07;31.13;;;;;;;8.55;100.00;99008.34;8250727;28;20058;-80
2022/10/01 02:43:06;;;;;;;147.32;31.25;;;;;;;8.54;100.00;99006.72;8296307;28;20438;-82
2022/10/01 02:47:13;;;;;;;245.93;30.20;;;;;;;8.57;100.00;99005.31;8283091;28;20089;-80
2022/10/01 02:51:25;;;;;;;149.10;29.75;;;;;;;8.56;100.00;99004.56;8302747;28;20399;-79
2022/10/01 02:55:29;;;;;;;206.85;26.13;;;;;;;8.56;100.00;99004.56;8358381;28;20052;-81
2022/10/01 02:59:30;;;;;;;182.60;27.83;;;;;;;8.55;100.00;99002.94;8395983;28;20048;-79
2022/10/01 03:03:31;;;;;;;179.50;28.00;;;;;;;8.53;100.00;99010.50;8401951;28;20628;-81
2022/10/01 03:07:34;;;;;;;228.52;28.00;;;;;;;8.53;100.00;99010.50;8411669;28;20684;-79
2022/10/01 03:11:35;;;;;;;138.63;26.08;;;;;;;8.52;100.00;99008.91;8411707;28;20036;-79
2022/10/01 03:15:36;;;;;;;160.82;27.85;;;;;;;8.54;100.00;99001.34;8399966;28;20066;-78
2022/10/01 03:19:37;;;;;;;103.93;29.05;;;;;;;8.50;100.00;99004.94;8393739;28;20049;-80
2022/10/01 03:23:38;;;;;;;113.63;27.92;;;;;;;8.47;100.00;99011.69;8408408;28;20106;-79
2022/10/01 03:27:42;;;;;;;141.82;28.73;;;;;;;8.45;100.00;99008.53;8411964;28;20102;-79
2022/10/01 03:31:43;;;;;;;109.97;28.98;;;;;;;8.44;100.00;99001.53;8421988;28;20040;-80
2022/10/01 03:35:45;;;;;;;94.15;30.63;;;;;;;8.42;100.00;98998.34;8410152;28;20044;-79
2022/10/01 03:39:46;;;;;;;123.57;30.80;;;;;;;8.42;100.00;99003.72;8411531;28;20048;-79
2022/10/01 03:43:47;;;;;;;98.80;29.63;;;;;;;8.42;100.00;98995.66;8409143;28;20048;-78
2022/10/01 03:47:51;;;;;;;112.13;30.27;;;;;;;8.36;100.00;98988.75;8401148;28;20100;-78
2022/10/01 03:51:53;;;;;;;91.80;28.58;;;;;;;8.35;100.00;98987.19;8407716;28;20036;-79
2022/10/01 03:55:54;;;;;;;116.45;28.38;;;;;;;8.33;100.00;98983.97;8411097;28;20045;-78
2022/10/01 03:59:54;;;;;;;82.55;26.73;;;;;;;8.29;100.00;98988.34;8406754;28;20120;-80
2022/10/01 04:03:55;;;;;;;96.07;28.83;;;;;;;8.23;100.00;98978.75;8409234;28;20127;-79
2022/10/01 04:07:58;;;;;;;96.07;27.77;;;;;;;8.19;100.00;98977.75;8401335;28;20516;-79
2022/10/01 04:12:00;;;;;;;64.55;27.90;;;;;;;8.14;100.00;98975.16;8417959;28;20091;-79
2022/10/01 04:16:05;;;;;;;76.10;26.77;;;;;;;8.07;100.00;98970.94;8414232;28;20106;-78
2022/10/01 04:20:07;;;;;;;103.90;27.15;;;;;;;8.04;100.00;98976.09;8412878;28;20433;-80
2022/10/01 04:24:08;;;;;;;85.80;26.70;;;;;;;8.00;100.00;98965.16;8389639;28;20044;-80
2022/10/01 04:28:11;;;;;;;60.85;25.92;;;;;;;7.95;100.00;98961.75;8397478;28;20068;-81
2022/10/01 04:32:12;;;;;;;54.15;25.38;;;;;;;7.89;100.00;98962.91;8396978;28;20494;-79
2022/10/01 04:36:13;;;;;;;71.68;24.58;;;;;;;7.84;100.00;98955.72;8398218;28;20048;-80
2022/10/01 04:40:14;;;;;;;50.35;23.85;;;;;;;7.81;100.00;98955.53;8378537;28;20056;-80
2022/10/01 04:44:15;;;;;;;73.93;25.17;;;;;;;7.74;100.00;98961.28;8397134;28;20044;-80
2022/10/01 04:48:17;;;;;;;72.35;24.95;;;;;;;7.72;100.00;98963.44;8399200;28;20132;-79
2022/10/01 04:52:18;;;;;;;68.20;23.67;;;;;;;7.66;100.00;98975.41;8364722;28;20061;-81
2022/10/01 04:56:18;;;;;;;74.40;24.45;;;;;;;7.65;100.00;98973.78;8397616;28;20044;-79
2022/10/01 05:00:23;;;;;;;91.15;23.77;;;;;;;7.63;100.00;98970.59;8395948;28;20032;-80
2022/10/01 05:04:26;;;;;;;64.90;23.55;;;;;;;7.63;100.00;98965.22;8384065;28;20037;-81
2022/10/01 05:08:27;;;;;;;80.43;24.50;;;;;;;7.62;100.00;98964.41;8372709;28;20039;-80
2022/10/01 05:12:28;;;;;;;84.30;24.35;;;;;;;7.62;100.00;98971.69;8373154;28;20390;-80
2022/10/01 05:16:29;;;;;;;111.80;45.58;;;;;;;7.63;100.00;98965.22;8368864;28;20187;-80
2022/10/01 05:20:32;;;;;;;80.70;35.05;;;;;;;7.63;100.00;98954.47;8374563;28;20037;-84
2022/10/01 05:24:33;;;;;;;82.85;26.23;;;;;;;7.66;100.00;98964.66;8370936;28;20094;-81
2022/10/01 05:28:35;;;;;;;52.83;24.73;;;;;;;7.68;100.00;98957.06;8364550;28;20372;-83
2022/10/01 05:32:36;;;;;;;43.30;24.45;;;;;;;7.71;100.00;98956.50;8371611;28;20049;-81
2022/10/01 05:36:39;;;;;;;47.63;24.48;;;;;;;7.77;100.00;98960.72;8396196;28;20048;-80
2022/10/01 05:40:44;;;;;;;42.17;24.42;;;;;;;7.82;100.00;98949.88;8379380;28;20497;-80
2022/10/01 05:44:45;;;;;;;48.33;25.13;;;;;;;7.83;100.00;98959.50;8393547;28;20454;-83
2022/10/01 05:48:50;;;;;;;54.17;25.55;;;;;;;7.85;100.00;98962.72;8396033;28;20051;-80
2022/10/01 05:52:54;;;;;;;99.25;27.08;;;;;;;7.84;100.00;98953.03;8395698;28;20055;-80
2022/10/01 05:56:55;;;;;;;61.20;24.75;;;;;;;7.85;100.00;98962.72;8394681;28;20040;-81
2022/10/01 06:00:56;;;;;;;88.10;28.27;;;;;;;7.88;100.00;98950.56;8395097;28;20044;-80
2022/10/01 06:04:57;;;;;;;67.63;27.00;;;;;;;7.97;100.00;98955.00;8405117;28;20128;-82
2022/10/01 06:08:58;;;;;;;64.15;26.10;;;;;;;7.94;100.00;98949.38;8404193;28;20028;-80
2022/10/01 06:13:00;;;;;;;68.45;23.73;;;;;;;7.89;100.00;98969.09;8423095;28;20035;-80
2022/10/01 06:17:01;;;;;;;44.55;23.48;;;;;;;7.85;100.00;98957.34;8404923;28;20143;-80
2022/10/01 06:21:02;;;;;;;45.80;22.85;;;;;;;7.90;100.00;98959.94;8411658;28;20044;-80
2022/10/01 06:25:04;;;;;;;43.30;24.15;;;;;;;8.00;100.00;98959.75;8407687;28;20056;-81
2022/10/01 06:29:06;;;;;;;49.20;24.85;;;;;;;8.04;100.00;98960.75;8404120;28;20131;-83
2022/10/01 06:33:07;;;;;;;42.65;23.45;;;;;;;8.05;100.00;98951.59;8411745;28;20059;-80
2022/10/01 06:37:08;;;;;;;55.03;23.80;;;;;;;8.12;100.00;98945.06;8400160;28;20553;-82
2022/10/01 06:41:12;;;;;;;45.85;23.63;;;;;;;8.15;100.00;98941.75;8391567;28;20056;-81
2022/10/01 06:45:15;;;;;;;59.92;27.42;;;;;;;8.23;100.00;98941.09;8408118;28;20068;-81
2022/10/01 06:49:20;;;;;;;49.13;27.42;;;;;;;8.25;100.00;98939.69;8428224;28;20069;-80
2022/10/01 06:53:22;;;;;;;44.67;24.35;;;;;;;8.32;100.00;98936.63;8427838;28;20032;-80
2022/10/01 06:57:23;;;;;;;48.85;26.73;;;;;;;8.38;100.00;98943.53;8427530;28;20048;-81
2022/10/01 07:01:24;;;;;;;49.72;27.92;;;;;;;8.46;100.00;98932.06;8414963;28;20044;-81
2022/10/01 07:05:25;;;;;;;53.83;29.38;;;;;;;8.53;100.00;98929.78;8424893;28;20052;-81
2022/10/01 07:09:26;;;;;;;49.25;27.67;;;;;;;8.58;100.00;98932.34;8414232;28;20048;-80
2022/10/01 07:13:27;;;;;;;47.58;27.27;;;;;;;8.66;100.00;98923.59;8426553;28;20059;-80
2022/10/01 07:17:28;;;;;;;46.67;25.88;;;;;;;8.74;100.00;98914.81;8421455;28;20051;-81
2022/10/01 07:21:29;;;;;;;46.10;25.83;;;;;;;8.84;100.00;98919.16;8412378;28;20378;-81
2022/10/01 07:25:31;;;;;;;43.05;26.20;;;;;;;8.94;100.00;98912.78;8414893;28;20535;-81
2022/10/01 07:29:32;;;;;;;50.03;28.75;;;;;;;9.04;100.00;98909.88;8409899;28;20140;-82
2022/10/01 07:33:33;;;;;;;44.03;26.98;;;;;;;9.11;100.00;98907.53;8415856;28;20063;-82
2022/10/01 07:37:34;;;;;;;42.75;26.23;;;;;;;9.16;100.00;98900.16;8374022;28;20064;-81
2022/10/01 07:41:35;;;;;;;47.53;27.42;;;;;;;9.28;100.00;98905.00;8386736;28;20102;-80
2022/10/01 07:45:36;;;;;;;58.88;28.70;;;;;;;9.37;100.00;98889.69;8385797;28;20048;-82
2022/10/01 07:49:37;;;;;;;52.92;28.33;;;;;;;9.44;100.00;98890.06;8381364;28;20683;-83
2022/10/01 07:53:38;;;;;;;45.40;26.92;;;;;;;9.53;100.00;98893.63;8378106;28;20045;-81
2022/10/01 07:57:40;;;;;;;45.67;27.85;;;;;;;9.63;100.00;98893.38;8393664;28;20049;-81
2022/10/01 08:01:41;;;;;;;54.90;29.08;;;;;;;9.75;100.00;98899.00;8378140;28;20135;-81
2022/10/01 08:05:42;;;;;;;51.53;30.73;;;;;;;9.86;100.00;98893.34;8380725;28;20140;-84
2022/10/01 08:09:43;;;;;;;59.88;32.42;;;;;;;9.92;100.00;98894.81;8387879;28;20055;-81
2022/10/01 08:13:46;;;;;;;61.47;32.63;;;;;;;10.00;100.00;98902.94;8397988;28;20048;-82
2022/10/01 08:17:48;;;;;;;64.90;34.20;;;;;;;10.12;100.00;98894.28;8387770;28;20048;-81
2022/10/01 08:21:49;;;;;;;57.60;33.38;;;;;;;10.21;100.00;98892.44;8397673;28;20044;-83
2022/10/01 08:25:50;;;;;;;59.92;33.95;;;;;;;10.24;100.00;98875.66;8370811;28;20426;-82
2022/10/01 08:29:52;;;;;;;63.08;34.88;;;;;;;10.34;100.00;98864.56;8366474;28;20174;-81
2022/10/01 08:33:53;;;;;;;54.95;31.98;;;;;;;10.46;100.00;98856.69;8391988;28;20044;-81
2022/10/01 08:37:59;;;;;;;53.75;31.75;;;;;;;10.63;100.00;98855.13;8408243;28;20079;-80
2022/10/01 08:42:27;;;;;;;56.97;31.55;;;;;;;10.74;100.00;98845.59;8407423;28;20063;-82
2022/10/01 08:46:33;;;;;;;58.92;31.80;;;;;;;10.87;99.63;98840.06;8425782;28;20044;-80
2022/10/01 08:50:43;;;;;;;48.78;31.00;;;;;;;11.00;99.21;98832.91;8423284;28;20117;-81
2022/10/01 08:54:58;;;;;;;50.33;30.85;;;;;;;11.17;98.78;98822.09;8413342;28;20105;-82
2022/10/01 08:59:09;;;;;;;56.15;32.80;;;;;;;11.33;98.48;98815.09;8416776;28;20474;-80
2022/10/01 09:03:12;;;;;;;59.67;35.17;;;;;;;11.47;98.13;98808.72;8379435;28;20812;-81
2022/10/01 09:07:25;;;;;;;53.10;32.78;;;;;;;11.64;98.14;98814.06;8393040;28;20532;-82
2022/10/01 09:11:47;;;;;;;51.17;31.70;;;;;;;11.88;97.80;98808.94;8393021;28;20048;-82
2022/10/01 09:15:59;;;;;;;51.58;33.28;;;;;;;12.18;97.37;98807.84;8394062;28;20127;-83
2022/10/01 09:20:29;;;;;;;50.28;32.13;;;;;;;12.46;96.50;98807.38;8398773;28;20064;-83
2022/10/01 09:24:37;;;;;;;42.03;28.48;;;;;;;12.66;94.82;98809.31;8379216;28;20474;-83
2022/10/01 09:28:38;;;;;;;43.60;26.23;;;;;;;12.85;93.86;98798.81;8394364;28;20462;-83
2022/10/01 09:33:03;;;;;;;40.75;25.95;;;;;;;13.19;92.69;98786.13;8381908;28;20048;-85
2022/10/01 09:37:20;;;;;;;38.85;25.67;;;;;;;13.44;91.51;98787.78;8389546;28;20143;-81
2022/10/01 09:41:23;;;;;;;43.65;28.52;;;;;;;13.60;90.49;98791.44;8401098;28;20387;-85
2022/10/01 09:45:24;;;;;;;36.35;23.15;;;;;;;13.66;89.25;98790.09;8393481;28;20048;-82
2022/10/01 09:49:32;;;;;;;28.60;19.92;;;;;;;13.61;89.87;98776.75;8400241;28;20056;-81
2022/10/01 09:53:45;;;;;;;28.55;19.35;;;;;;;13.50;90.21;98778.31;8395429;28;20048;-82
2022/10/01 09:58:10;;;;;;;27.05;17.63;;;;;;;13.34;90.61;98766.50;8393236;28;20032;-81
2022/10/01 10:02:18;;;;;;;28.95;18.95;;;;;;;13.28;91.12;98762.41;8403264;28;20048;-83
2022/10/01 10:06:26;;;;;;;37.55;20.88;;;;;;;13.27;91.30;98767.03;8397023;28;20044;-79
2022/10/01 10:10:29;;;;;;;;;;;;;;;13.32;91.59;98763.34;8394429;28;20078;-84
2022/10/01 10:14:34;;;;;;;32.10;19.90;;;;;;;13.33;91.24;98759.50;8403599;28;19920;-81
2022/10/01 10:18:38;;;;;;;29.63;19.70;;;;;;;13.36;90.86;98748.00;8407966;28;20677;-81
2022/10/01 10:22:38;;;;;;;33.42;22.00;;;;;;;13.40;90.72;98748.91;8411243;28;20047;-81
2022/10/01 10:26:41;;;;;;;41.22;24.85;;;;;;;13.45;90.83;98745.97;8400888;28;20060;-81
2022/10/01 10:30:42;;;;;;;27.75;18.85;;;;;;;13.47;89.92;98739.09;8394793;28;20470;-81
2022/10/01 10:34:47;;;;;;;33.15;18.95;;;;;;;13.52;89.49;98740.78;8421738;28;20056;-80
2022/10/01 10:38:51;;;;;;;29.27;17.67;;;;;;;13.56;88.78;98735.47;8410417;28;20453;-81
2022/10/01 10:42:54;;;;;;;26.35;16.38;;;;;;;13.57;88.67;98732.44;8402883;28;20085;-82
2022/10/01 10:46:59;;;;;;;27.58;16.52;;;;;;;13.62;88.41;98724.06;8422688;28;20502;-81
2022/10/01 10:51:03;;;;;;;29.30;18.30;;;;;;;13.68;88.28;98706.44;8407699;28;20047;-80
2022/10/01 10:55:24;;;;;;;33.95;19.05;;;;;;;13.74;88.22;98699.69;8405035;28;20106;-80
2022/10/01 10:59:27;;;;;;;27.13;17.35;;;;;;;13.80;88.17;98698.28;8408930;28;20045;-81
2022/10/01 11:03:29;;;;;;;26.83;17.05;;;;;;;13.86;88.15;98686.09;8391226;28;20515;-81
2022/10/01 11:07:31;;;;;;;29.48;17.52;;;;;;;13.95;87.95;98684.06;8390109;28;20059;-83
2022/10/01 11:11:42;;;;;;;25.08;16.83;;;;;;;13.99;87.77;98672.50;8392002;28;20076;-82
2022/10/01 11:15:54;;;;;;;26.65;16.75;;;;;;;14.03;87.77;98667.97;8406845;28;20056;-80
2022/10/01 11:20:16;;;;;;;28.27;15.88;;;;;;;14.03;87.60;98659.81;8401372;28;20102;-81
2022/10/01 11:24:24;;;;;;;31.17;18.13;;;;;;;13.99;87.85;98657.00;8424237;28;20056;-80
2022/10/01 11:28:39;;;;;;;29.52;16.60;;;;;;;13.99;87.86;98656.22;8425947;28;20056;-80
2022/10/01 11:33:17;;;;;;;30.88;16.77;;;;;;;13.99;87.63;98645.34;8404895;28;20047;-81
2022/10/01 11:37:42;;;;;;;29.23;16.65;;;;;;;13.98;88.04;98643.78;8393986;28;20064;-82
2022/10/01 11:41:46;;;;;;;21.63;14.35;;;;;;;13.89;88.49;98636.56;8386266;28;20051;-79
2022/10/01 11:45:55;;;;;;;25.05;16.90;;;;;;;13.81;89.09;98633.94;8399855;28;20052;-81
2022/10/01 11:50:07;;;;;;;;;;;;;;;13.76;89.50;98626.84;8400815;28;20504;-80
2022/10/01 11:54:13;;;;;;;28.40;15.60;;;;;;;13.74;89.83;98618.25;8395004;28;20450;-80
2022/10/01 12:02:46;;;;;;;41.90;24.40;;;;;;;13.77;90.61;98614.84;8394764;28;20494;-83
2022/10/01 12:07:15;;;;;;;24.05;16.08;;;;;;;13.80;90.63;98606.00;8410877;28;20485;-80
2022/10/01 12:11:21;;;;;;;25.67;16.65;;;;;;;13.86;90.64;98606.56;8404411;28;20508;-83
2022/10/01 12:15:29;;;;;;;25.13;15.35;;;;;;;13.92;90.63;98597.88;8415076;28;20168;-80
2022/10/01 12:19:31;;;;;;;;;;;;;;;14.00;90.38;98598.09;8379738;28;20123;-80
2022/10/01 12:23:43;;;;;;;27.05;15.68;;;;;;;14.05;89.82;98589.69;8396610;28;20290;-80
2022/10/01 12:27:50;;;;;;;21.20;13.40;;;;;;;14.12;89.82;98587.16;8396608;28;20040;-82
2022/10/01 12:32:24;;;;;;;21.73;14.32;;;;;;;14.25;88.93;98583.28;8397879;28;20417;-82
2022/10/01 12:36:41;;;;;;;21.17;12.38;;;;;;;14.40;88.47;98574.44;8396933;28;20041;-81
2022/10/01 12:40:46;;;;;;;23.00;14.70;;;;;;;14.46;88.28;98578.47;8395527;28;20094;-80
2022/10/01 12:45:11;;;;;;;30.67;20.33;;;;;;;14.48;88.10;98575.44;8396806;28;20044;-80
2022/10/01 12:49:12;;;;;;;34.13;19.80;;;;;;;14.57;88.15;98562.47;8396240;28;20485;-79
2022/10/01 12:53:39;;;;;;;26.42;13.85;;;;;;;14.66;87.81;98555.72;8396696;28;20089;-81
2022/10/01 12:57:52;;;;;;;9.43;6.03;;;;;;;14.74;85.86;98548.56;8396449;28;20406;-84
2022/10/01 13:02:06;;;;;;;4.43;2.60;;;;;;;14.76;79.93;98555.22;8396357;28;20060;-81
2022/10/01 13:06:35;;;;;;;5.03;2.30;;;;;;;14.82;75.37;98557.66;8395914;28;20588;-86
2022/10/01 13:11:02;;;;;;;3.53;2.17;;;;;;;14.94;72.72;98549.44;8398518;28;20429;-83
2022/10/01 13:15:05;;;;;;;3.85;2.03;;;;;;;15.04;72.96;98538.03;8288300;28;20070;-83
2022/10/01 13:19:23;;;;;;;5.93;2.20;;;;;;;14.99;71.73;98557.34;8257840;28;20435;-81
2022/10/01 13:23:43;;;;;;;4.72;2.35;;;;;;;14.90;71.23;98548.56;8259547;28;20043;-80
2022/10/01 13:27:53;;;;;;;3.95;2.20;;;;;;;14.92;71.89;98544.34;8258921;28;20073;-82
2022/10/01 13:32:00;;;;;;;5.28;2.17;;;;;;;14.97;71.76;98537.84;8255036;28;20129;-81
2022/10/01 13:36:03;;;;;;;5.57;2.53;;;;;;;15.00;72.34;98537.16;8257907;28;20050;-84
2022/10/01 13:40:30;;;;;;;4.10;2.10;;;;;;;14.95;71.43;98529.28;8255014;28;20436;-81
2022/10/01 13:44:33;;;;;;;3.85;2.30;;;;;;;14.90;70.73;98524.09;8256236;28;20050;-81
2022/10/01 13:48:36;;;;;;;3.58;2.38;;;;;;;14.79;71.36;98527.34;8258617;28;20073;-80
2022/10/01 13:52:37;;;;;;;4.28;2.40;;;;;;;14.69;70.73;98510.78;8374680;28;20083;-81
2022/10/01 13:56:38;;;;;;;2.22;1.95;;;;;;;14.64;71.93;98509.09;8367986;28;20044;-80
2022/10/01 14:00:49;;;;;;;4.03;2.28;;;;;;;14.56;71.78;98518.19;8368069;28;20048;-82
2022/10/01 14:04:51;;;;;;;2.70;2.10;;;;;;;14.51;71.62;98504.06;8375994;28;20681;-81
2022/10/01 14:09:01;;;;;;;9.77;2.47;;;;;;;14.47;70.99;98498.56;8387091;28;20044;-82
2022/10/01 14:17:31;;;;;;;3.63;2.40;;;;;;;14.33;70.98;98481.84;8364917;28;20094;-83
2022/10/01 14:21:47;;;;;;;5.20;2.45;;;;;;;14.26;70.96;98484.38;8393112;28;20059;-82
2022/10/01 14:26:06;;;;;;;6.40;2.72;;;;;;;14.23;71.27;98466.06;8379125;28;20056;-81
2022/10/01 14:30:17;;;;;;;5.43;3.00;;;;;;;14.19;71.20;98470.59;8394227;28;20118;-82
2022/10/01 14:34:26;;;;;;;4.10;2.72;;;;;;;14.14;71.21;98457.28;8391629;28;20206;-83
2022/10/01 14:38:28;;;;;;;4.22;2.63;;;;;;;14.12;70.65;98459.56;8401015;28;20049;-82
2022/10/01 14:42:29;;;;;;;4.65;2.50;;;;;;;14.08;70.60;98458.66;8400841;28;20056;-81
2022/10/01 14:46:34;;;;;;;3.92;2.63;;;;;;;14.02;70.97;98460.06;8397800;28;20044;-81
2022/10/01 14:50:37;;;;;;;4.57;2.40;;;;;;;14.00;71.18;98446.06;8418944;28;20111;-81
2022/10/01 14:54:42;;;;;;;4.28;2.70;;;;;;;13.99;71.28;98452.63;8417290;28;20040;-83
2022/10/01 14:58:51;;;;;;;5.75;2.58;;;;;;;14.00;71.76;98443.34;8408153;28;20055;-83
2022/10/01 15:03:01;;;;;;;;;;;;;;;13.98;71.67;98448.31;8424184;28;20044;-80
2022/10/01 15:07:02;;;;;;;;;;;;;;;13.98;71.91;98448.31;8410621;28;19920;-83
2022/10/01 15:11:06;;;;;;;8.77;3.20;;;;;;;13.93;72.11;98442.00;8427591;28;20383;-83
2022/10/01 15:15:24;;;;;;;6.80;3.20;;;;;;;13.85;72.78;98456.50;8426394;28;20055;-84
2022/10/01 15:19:25;;;;;;;4.40;3.13;;;;;;;13.75;73.25;98462.44;8390003;28;20651;-81
2022/10/01 15:23:27;;;;;;;8.82;3.08;;;;;;;13.46;76.21;98492.59;8375122;28;20046;-83
2022/10/01 15:27:33;;;;;;;5.80;3.33;;;;;;;12.79;81.23;98507.50;8404960;28;20071;-83
2022/10/01 15:31:35;;;;;;;6.40;4.57;;;;;;;12.41;84.26;98506.97;8400490;28;20131;-82
2022/10/01 15:35:38;;;;;;;7.45;3.97;;;;;;;12.12;86.67;98511.41;8398836;28;20044;-82
2022/10/01 15:39:40;;;;;;;8.25;3.40;;;;;;;11.83;89.56;98504.19;8397720;28;20367;-85
2022/10/01 15:43:41;;;;;;;7.10;4.03;;;;;;;11.71;90.70;98497.88;8381550;28;20065;-83
2022/10/01 15:47:55;;;;;;;7.72;4.05;;;;;;;11.64;91.33;98494.91;8394060;28;20049;-83
2022/10/01 15:56:22;;;;;;;10.07;4.70;;;;;;;11.45;92.16;98487.25;8395495;28;20059;-82
2022/10/01 16:00:30;;;;;;;12.27;4.85;;;;;;;11.47;91.87;98489.66;8379706;28;20052;-82
2022/10/01 16:04:32;;;;;;;9.97;5.40;;;;;;;11.38;92.08;98487.78;8385731;28;20049;-83
2022/10/01 16:08:45;;;;;;;11.05;5.40;;;;;;;11.35;92.41;98483.03;8354743;28;20636;-81
2022/10/01 16:12:46;;;;;;;7.68;4.57;;;;;;;11.34;92.33;98481.44;8375693;28;20502;-83
2022/10/01 16:16:49;;;;;;;8.68;4.43;;;;;;;11.29;92.91;98478.94;8370904;28;20041;-82
2022/10/01 16:20:59;;;;;;;7.20;4.30;;;;;;;11.26;92.94;98473.41;8372042;28;20095;-81
2022/10/01 16:25:02;;;;;;;6.47;3.53;;;;;;;11.20;93.38;98475.50;8364936;28;20063;-81
2022/10/01 16:29:11;;;;;;;6.45;3.55;;;;;;;11.16;93.69;98471.84;8392805;28;20076;-81
2022/10/01 16:33:12;;;;;;;5.25;3.55;;;;;;;11.12;93.86;98473.63;8393038;28;20135;-82
2022/10/01 16:37:13;;;;;;;4.47;2.85;;;;;;;11.07;93.95;98473.81;8391311;28;20086;-81
2022/10/01 16:41:21;;;;;;;7.05;3.85;;;;;;;11.04;94.64;98488.00;8397871;28;20495;-81
2022/10/01 16:45:24;;;;;;;10.00;3.85;;;;;;;10.97;95.40;98493.91;8376343;28;20045;-81
2022/10/01 16:49:26;;;;;;;7.93;4.88;;;;;;;10.95;95.79;98484.53;8413135;28;20048;-82
2022/10/01 16:53:28;;;;;;;6.65;4.22;;;;;;;10.92;96.38;98474.41;8428074;28;20059;-82
2022/10/01 16:57:31;;;;;;;11.85;5.00;;;;;;;10.93;96.28;98481.38;8431555;28;20127;-81
2022/10/01 17:01:56;;;;;;;8.30;5.32;;;;;;;10.93;96.52;98482.19;8423256;28;20135;-83
2022/10/01 17:05:58;;;;;;;8.13;4.60;;;;;;;10.94;96.66;98477.56;8277225;28;20050;-83
2022/10/01 17:09:59;;;;;;;9.02;4.88;;;;;;;10.88;96.72;98478.88;8275211;28;20074;-82
2022/10/01 17:14:07;;;;;;;7.30;4.20;;;;;;;10.86;96.79;98478.38;8257821;28;20489;-81
2022/10/01 17:18:09;;;;;;;8.50;4.30;;;;;;;10.82;96.35;98474.75;8253337;28;20113;-82
2022/10/01 17:22:10;;;;;;;6.97;4.15;;;;;;;10.77;96.49;98493.84;8261959;28;20059;-81
2022/10/01 17:26:12;;;;;;;7.88;4.03;;;;;;;10.76;96.08;98486.84;8243930;28;20068;-79
2022/10/01 17:30:14;;;;;;;6.55;3.28;;;;;;;10.74;95.88;98489.09;8261007;28;20094;-78
2022/10/01 17:34:15;;;;;;;8.40;4.07;;;;;;;10.69;95.77;98486.56;8261190;28;20137;-79
2022/10/01 17:38:18;;;;;;;8.15;3.40;;;;;;;10.69;95.66;98486.56;8261356;28;20065;-80
2022/10/01 17:42:20;;;;;;;6.22;3.53;;;;;;;10.65;95.50;98485.63;8334755;28;20067;-79
2022/10/01 17:46:21;;;;;;;8.60;4.82;;;;;;;10.60;95.79;98478.50;8394552;28;20067;-81
2022/10/01 17:50:23;;;;;;;7.57;4.22;;;;;;;10.59;95.58;98483.13;8381526;28;20056;-81
2022/10/01 17:54:24;;;;;;;7.60;3.92;;;;;;;10.54;95.51;98483.28;8389002;28;20044;-81
2022/10/01 17:58:25;;;;;;;6.00;3.50;;;;;;;10.54;95.39;98491.38;8404635;28;20070;-81
2022/10/01 18:02:27;;;;;;;7.22;3.88;;;;;;;10.50;95.58;98495.84;8382669;28;20086;-80
2022/10/01 18:06:29;;;;;;;7.53;3.72;;;;;;;10.50;95.19;98503.97;8382845;28;20466;-80
2022/10/01 18:10:30;;;;;;;6.75;3.35;;;;;;;10.45;95.07;98504.13;8416715;28;20058;-81
2022/10/01 18:14:31;;;;;;;6.88;3.47;;;;;;;10.42;95.28;98510.16;8428767;28;20094;-79
2022/10/01 18:18:33;;;;;;;5.78;3.45;;;;;;;10.39;95.56;98516.22;8428815;28;20516;-79
2022/10/01 18:22:36;;;;;;;9.77;3.45;;;;;;;10.40;95.91;98512.41;8413778;28;20607;-80
2022/10/01 18:26:38;;;;;;;5.85;3.10;;;;;;;10.36;95.75;98516.88;8406329;28;20521;-80
2022/10/01 18:30:39;;;;;;;7.13;3.25;;;;;;;10.35;95.72;98515.28;8406651;28;20055;-80
2022/10/01 18:35:16;;;;;;;5.53;3.30;;;;;;;10.37;95.84;98518.44;8428155;28;20140;-79
2022/10/01 18:39:23;;;;;;;7.50;3.38;;;;;;;10.33;96.15;98517.50;8273089;28;20462;-81
2022/10/01 18:43:25;;;;;;;6.10;3.33;;;;;;;10.31;96.62;98511.59;8258310;28;20603;-79
2022/10/01 18:47:42;;;;;;;5.60;3.30;;;;;;;10.33;96.64;98516.69;8262690;28;20068;-81
2022/10/01 18:52:07;;;;;;;9.20;3.70;;;;;;;10.33;97.06;98517.50;8283114;28;20034;-80
2022/10/01 18:56:17;;;;;;;9.57;3.75;;;;;;;10.32;96.94;98513.19;8285465;28;20054;-81
2022/10/01 19:00:22;;;;;;;9.65;4.75;;;;;;;10.32;97.13;98510.50;8264232;28;20050;-80
2022/10/01 19:04:46;;;;;;;9.88;4.82;;;;;;;10.29;97.58;98511.16;8246330;28;20085;-81
2022/10/01 19:09:03;;;;;;;10.18;4.38;;;;;;;10.29;97.90;98521.94;8284063;28;20052;-81
2022/10/01 19:13:21;;;;;;;7.03;4.05;;;;;;;10.30;97.97;98518.16;8291781;28;20049;-81
2022/10/01 19:17:32;;;;;;;8.77;5.28;;;;;;;10.31;97.87;98519.72;8348926;28;20057;-79